ADDS METAR Data INFO
IDs: Format: Raw Decoded Include TAF

Data at: 1545 UTC 12 Dec 2017

KJKL 121510Z AUTO 30011G27KT 280V340 4SM -SN BR BKN014 OVC020 00/M02 A2986 RMK AO2 PK WND 30027/1504 P0000 T00001022
KJKL 121453Z AUTO 30013G28KT 4SM -SN SCT012 BKN018 OVC028 01/M02 A2986 RMK AO2 PK WND 31028/1445 UPB1356E46SNB46 SLP113 P0000 60000 T00111017 53015
KJKL 121353Z AUTO 29007G22KT 9SM OVC019 03/M02 A2984 RMK AO2 UPB41E50 SLP106 P0000 T00281017
KJKL 121253Z AUTO 29009G19KT 10SM OVC024 03/M02 A2982 RMK AO2 SLP101 T00331022
KJKL 121153Z AUTO 29005KT 10SM OVC028 04/M02 A2981 RMK AO2 SLP096 T00391022 10083 20039 53007
KJKL 121115Z AUTO 31008G18KT 10SM OVC028 04/M02 A2980 RMK AO2 T00441017
KJKL 121053Z AUTO 29006KT 10SM BKN030 OVC037 04/M02 A2979 RMK AO2 SLP091 T00441017
KJKL 120953Z AUTO 28011G21KT 240V310 10SM OVC032 05/M02 A2979 RMK AO2 SLP087 T00501017
KJKL 120853Z AUTO VRB04G19KT 10SM OVC043 06/M02 A2979 RMK AO2 SLP087 T00561022 51006
KJKL 120753Z AUTO 27011G22KT 240V310 10SM FEW075 06/M03 A2979 RMK AO2 SLP086 T00561028
KJKL 120653Z AUTO 25008KT 230V320 10SM OVC060 07/M03 A2977 RMK AO2 SLP081 T00721028
KJKL 120553Z AUTO 25007KT 230V290 10SM BKN055 08/M02 A2977 RMK AO2 SLP080 T00781017 10094 20078 53006
KJKL 120453Z AUTO 24008G22KT 190V310 10SM CLR 09/M02 A2975 RMK AO2 SLP075 T00941017 401171011
KJKL 120353Z AUTO 23007KT 200V260 10SM CLR 09/M02 A2975 RMK AO2 SLP076 T00941017
KJKL 120253Z AUTO 21005KT 10SM CLR 09/M02 A2975 RMK AO2 SLP077 T00941017 58010
KJKL 120153Z AUTO VRB04KT 10SM CLR 09/M02 A2977 RMK AO2 SLP085 T00891017
KJKL 120053Z AUTO VRB05KT 10SM CLR 09/M02 A2977 RMK AO2 SLP086 T00891022
KJKL 112353Z AUTO 20007KT 140V220 10SM FEW120 09/M03 A2978 RMK AO2 SLP090 T00891028 10117 20089 56023
KJKL 112253Z AUTO 20007KT 150V230 10SM CLR 10/M03 A2979 RMK AO2 SLP092 T01001033
KJKL 112153Z AUTO VRB04KT 10SM CLR 11/M03 A2982 RMK AO2 SLP101 T01061033
KJKL 112053Z AUTO VRB05KT 10SM CLR 12/M03 A2986 RMK AO2 SLP112 T01171033 58041
KJKL 111953Z AUTO VRB05KT 10SM CLR 12/M03 A2990 RMK AO2 SLP127 T01171028
KJKL 111853Z AUTO VRB05KT 10SM CLR 11/M03 A2994 RMK AO2 SLP140 T01061028
KJKL 111753Z AUTO 10SM CLR 09/M03 A2998 RMK AO2 SLP156 T00941028 10094 21011 58029
KJKL 111653Z AUTO 10SM FEW090 07/M03 A3005 RMK AO2 SLP179 T00721028
KJKL 111553Z AUTO VRB03KT 10SM CLR 05/M03 A3006 RMK AO2 SLP184 T00501033
KJKL 111453Z AUTO 20003KT 10SM CLR 03/M04 A3007 RMK AO2 SLP190 T00281044 58008
KJKL 111353Z AUTO 00000KT 10SM CLR 01/M05 A3008 RMK AO2 SLP195 T00061050
KJKL 111253Z AUTO 22004KT 10SM CLR 00/M06 A3009 RMK AO2 SLP198 T00001061
KJKL 111153Z AUTO 00000KT 10SM CLR 00/M06 A3009 RMK AO2 SLP200 T00001061 10022 21006 56001
KJKL 111053Z AUTO 23005KT 10SM CLR 01/M06 A3009 RMK AO2 SLP200 T00061061
KJKL 110953Z AUTO 23005KT 10SM CLR 01/M06 A3009 RMK AO2 SLP196 T00061061
KJKL 110853Z AUTO 23004KT 10SM CLR 01/M06 A3010 RMK AO2 SLP199 T00061061 50003
KJKL 110753Z AUTO VRB05KT 10SM CLR 01/M06 A3010 RMK AO2 SLP201 T00111061
KJKL 110653Z AUTO VRB04KT 10SM CLR 02/M07 A3010 RMK AO2 SLP199 T00221067
KJKL 110553Z AUTO 23008KT 10SM CLR 02/M07 A3009 RMK AO2 SLP196 T00171067 10017 20006 50004
KJKL 110453Z AUTO VRB05KT 10SM CLR 02/M07 A3009 RMK AO2 SLP198 T00171072 400391044
KJKL 110353Z AUTO VRB05KT 10SM CLR 02/M08 A3008 RMK AO2 SLP195 T00171078